📊 Raw Sensor Data

Showing records 34926 to 34950 of 84,868 total

ID Distance (ft) Battery V Battery A Int Temp (°F) Int Humid (%) Ext Temp (°F) Solar V RSSI SNR Time Stamp
49955 15.3 3.79 -5 84 53 82 0.00 -70 8 08/22/2025 08:15 PM
49954 15.3 3.79 -5 86 55 84 1.10 -70 9 08/22/2025 08:00 PM
49953 15.4 3.77 -9 91 54 86 2.60 -71 8 08/22/2025 07:45 PM
49952 15.4 3.83 0 96 51 90 4.60 -70 8 08/22/2025 07:30 PM
49951 15.4 3.91 -5 100 49 93 4.60 -71 7 08/22/2025 07:15 PM
49950 15.4 3.79 0 102 48 95 4.60 -71 8 08/22/2025 07:00 PM
49949 15.4 3.79 0 103 46 101 5.10 -71 7 08/22/2025 06:45 PM
49948 15.4 4.20 47 98 49 93 4.50 -70 8 08/22/2025 06:30 PM
49947 15.3 3.78 0 99 49 97 5.10 -71 8 08/22/2025 06:15 PM
49946 15.4 3.78 0 99 53 94 5.10 -71 8 08/22/2025 05:45 PM
49945 15.4 3.78 0 101 54 96 5.10 -71 8 08/22/2025 05:30 PM
49944 15.4 3.78 0 105 54 97 5.10 -71 8 08/22/2025 05:15 PM
49943 15.5 3.83 0 112 50 101 5.10 -71 8 08/22/2025 05:00 PM
49942 15.6 3.78 0 118 47 103 5.10 -70 7 08/22/2025 04:45 PM
49941 15.5 4.07 0 119 45 109 5.10 -70 8 08/22/2025 04:30 PM
49940 15.6 3.78 0 118 45 108 5.20 -71 8 08/22/2025 04:15 PM
49939 15.5 4.07 0 117 45 105 5.20 -70 8 08/22/2025 04:00 PM
49938 15.7 3.78 0 117 44 106 5.20 -70 8 08/22/2025 03:45 PM
49937 15.5 3.78 0 117 43 105 5.20 -70 8 08/22/2025 03:30 PM
49936 15.4 3.78 0 116 42 105 5.20 -70 8 08/22/2025 03:15 PM
49935 15.5 3.78 0 115 42 103 5.20 -70 8 08/22/2025 03:00 PM
49934 15.5 3.78 0 114 41 103 5.20 -71 8 08/22/2025 02:45 PM
49933 15.6 3.78 0 112 41 102 5.20 -70 7 08/22/2025 02:30 PM
49932 15.5 3.78 0 110 41 101 5.10 -71 7 08/22/2025 02:15 PM
49931 15.5 3.78 0 108 41 98 5.20 -72 7 08/22/2025 02:00 PM